sensor_id;sensor_type;location;lat;lon;timestamp;P1;durP1;ratioP1;P2;durP2;ratioP2
22256;SDS011;11297;42.686;23.374;2023-02-11T00:01:20;20.70;;;13.90;;
22256;SDS011;11297;42.686;23.374;2023-02-11T00:03:57;23.20;;;14.80;;
22256;SDS011;11297;42.686;23.374;2023-02-11T00:06:24;22.40;;;14.23;;
22256;SDS011;11297;42.686;23.374;2023-02-11T00:08:50;20.90;;;13.57;;
22256;SDS011;11297;42.686;23.374;2023-02-11T00:11:17;23.43;;;14.83;;
22256;SDS011;11297;42.686;23.374;2023-02-11T00:13:44;26.37;;;14.80;;
22256;SDS011;11297;42.686;23.374;2023-02-11T00:16:11;21.20;;;14.63;;
22256;SDS011;11297;42.686;23.374;2023-02-11T00:18:39;28.30;;;16.20;;
22256;SDS011;11297;42.686;23.374;2023-02-11T00:21:08;31.20;;;17.93;;
22256;SDS011;11297;42.686;23.374;2023-02-11T00:23:35;28.80;;;16.50;;
22256;SDS011;11297;42.686;23.374;2023-02-11T00:26:01;35.40;;;19.93;;
22256;SDS011;11297;42.686;23.374;2023-02-11T00:28:27;33.13;;;19.60;;
22256;SDS011;11297;42.686;23.374;2023-02-11T00:30:55;26.73;;;17.57;;
22256;SDS011;11297;42.686;23.374;2023-02-11T00:33:21;36.40;;;20.60;;
22256;SDS011;11297;42.686;23.374;2023-02-11T00:35:47;29.10;;;16.93;;
22256;SDS011;11297;42.686;23.374;2023-02-11T00:38:12;25.70;;;16.43;;
22256;SDS011;11297;42.686;23.374;2023-02-11T00:40:38;24.50;;;15.53;;
22256;SDS011;11297;42.686;23.374;2023-02-11T00:43:03;26.97;;;16.80;;
22256;SDS011;11297;42.686;23.374;2023-02-11T00:45:28;27.93;;;16.60;;
22256;SDS011;11297;42.686;23.374;2023-02-11T00:47:54;25.77;;;14.93;;
22256;SDS011;11297;42.686;23.374;2023-02-11T00:50:20;19.97;;;12.97;;
22256;SDS011;11297;42.686;23.374;2023-02-11T00:52:46;27.10;;;15.50;;
22256;SDS011;11297;42.686;23.374;2023-02-11T00:55:11;24.80;;;14.47;;
22256;SDS011;11297;42.686;23.374;2023-02-11T00:57:37;26.43;;;16.07;;
22256;SDS011;11297;42.686;23.374;2023-02-11T01:00:03;22.13;;;14.80;;
22256;SDS011;11297;42.686;23.374;2023-02-11T01:02:29;23.20;;;15.57;;
22256;SDS011;11297;42.686;23.374;2023-02-11T01:04:55;29.37;;;16.83;;
22256;SDS011;11297;42.686;23.374;2023-02-11T01:07:20;42.03;;;22.13;;
22256;SDS011;11297;42.686;23.374;2023-02-11T01:09:45;33.83;;;19.67;;
22256;SDS011;11297;42.686;23.374;2023-02-11T01:12:11;33.27;;;19.17;;
22256;SDS011;11297;42.686;23.374;2023-02-11T01:14:36;30.73;;;18.43;;
22256;SDS011;11297;42.686;23.374;2023-02-11T01:17:03;29.70;;;17.63;;
22256;SDS011;11297;42.686;23.374;2023-02-11T01:19:30;35.43;;;21.20;;
22256;SDS011;11297;42.686;23.374;2023-02-11T01:21:55;25.43;;;16.40;;
22256;SDS011;11297;42.686;23.374;2023-02-11T01:24:20;29.33;;;18.20;;
22256;SDS011;11297;42.686;23.374;2023-02-11T01:26:46;29.20;;;17.97;;
22256;SDS011;11297;42.686;23.374;2023-02-11T01:29:11;31.70;;;18.23;;
22256;SDS011;11297;42.686;23.374;2023-02-11T01:31:37;36.97;;;19.70;;
22256;SDS011;11297;42.686;23.374;2023-02-11T01:34:02;32.33;;;19.00;;
22256;SDS011;11297;42.686;23.374;2023-02-11T01:36:27;50.27;;;25.63;;
22256;SDS011;11297;42.686;23.374;2023-02-11T01:38:53;70.43;;;36.70;;
22256;SDS011;11297;42.686;23.374;2023-02-11T01:41:18;86.03;;;45.33;;
22256;SDS011;11297;42.686;23.374;2023-02-11T01:43:45;91.90;;;42.50;;
22256;SDS011;11297;42.686;23.374;2023-02-11T01:48:39;52.87;;;29.20;;
22256;SDS011;11297;42.686;23.374;2023-02-11T01:51:41;44.73;;;25.87;;
22256;SDS011;11297;42.686;23.374;2023-02-11T01:54:16;50.60;;;26.20;;
22256;SDS011;11297;42.686;23.374;2023-02-11T01:57:03;36.90;;;22.20;;
22256;SDS011;11297;42.686;23.374;2023-02-11T02:07:49;44.97;;;23.20;;
22256;SDS011;11297;42.686;23.374;2023-02-11T02:10:23;38.20;;;22.17;;
22256;SDS011;11297;42.686;23.374;2023-02-11T02:12:51;39.80;;;23.10;;
22256;SDS011;11297;42.686;23.374;2023-02-11T02:15:19;37.93;;;20.83;;
22256;SDS011;11297;42.686;23.374;2023-02-11T02:21:03;31.30;;;19.90;;
22256;SDS011;11297;42.686;23.374;2023-02-11T02:26:37;30.40;;;20.13;;
22256;SDS011;11297;42.686;23.374;2023-02-11T02:35:04;30.90;;;18.00;;
22256;SDS011;11297;42.686;23.374;2023-02-11T02:37:42;34.03;;;18.03;;
22256;SDS011;11297;42.686;23.374;2023-02-11T02:40:19;25.77;;;16.60;;
22256;SDS011;11297;42.686;23.374;2023-02-11T02:42:49;31.00;;;19.07;;
22256;SDS011;11297;42.686;23.374;2023-02-11T02:45:16;30.57;;;18.53;;
22256;SDS011;11297;42.686;23.374;2023-02-11T02:47:42;34.00;;;20.03;;
22256;SDS011;11297;42.686;23.374;2023-02-11T02:50:08;30.50;;;18.23;;
22256;SDS011;11297;42.686;23.374;2023-02-11T02:55:16;37.67;;;20.83;;
22256;SDS011;11297;42.686;23.374;2023-02-11T03:09:22;32.13;;;18.60;;
22256;SDS011;11297;42.686;23.374;2023-02-11T03:11:53;28.90;;;16.67;;
22256;SDS011;11297;42.686;23.374;2023-02-11T03:14:18;31.63;;;17.97;;
22256;SDS011;11297;42.686;23.374;2023-02-11T03:16:46;29.53;;;17.27;;
22256;SDS011;11297;42.686;23.374;2023-02-11T03:21:42;26.67;;;16.30;;
22256;SDS011;11297;42.686;23.374;2023-02-11T03:24:12;32.57;;;17.80;;
22256;SDS011;11297;42.686;23.374;2023-02-11T03:26:50;29.87;;;17.80;;
22256;SDS011;11297;42.686;23.374;2023-02-11T03:32:25;28.37;;;18.37;;
22256;SDS011;11297;42.686;23.374;2023-02-11T03:34:55;30.00;;;17.50;;
22256;SDS011;11297;42.686;23.374;2023-02-11T03:40:36;24.73;;;15.77;;
22256;SDS011;11297;42.686;23.374;2023-02-11T03:43:05;26.93;;;16.43;;
22256;SDS011;11297;42.686;23.374;2023-02-11T03:45:35;25.47;;;16.63;;
22256;SDS011;11297;42.686;23.374;2023-02-11T03:48:03;29.03;;;17.60;;
22256;SDS011;11297;42.686;23.374;2023-02-11T03:50:35;27.77;;;17.03;;
22256;SDS011;11297;42.686;23.374;2023-02-11T03:53:03;29.47;;;16.83;;
22256;SDS011;11297;42.686;23.374;2023-02-11T03:55:30;30.90;;;19.70;;
22256;SDS011;11297;42.686;23.374;2023-02-11T03:57:59;30.93;;;18.17;;
22256;SDS011;11297;42.686;23.374;2023-02-11T04:00:32;27.73;;;17.27;;
22256;SDS011;11297;42.686;23.374;2023-02-11T04:03:00;28.03;;;19.43;;
22256;SDS011;11297;42.686;23.374;2023-02-11T04:05:26;36.43;;;21.40;;
22256;SDS011;11297;42.686;23.374;2023-02-11T04:07:51;50.77;;;31.53;;
22256;SDS011;11297;42.686;23.374;2023-02-11T04:10:16;60.13;;;38.60;;
22256;SDS011;11297;42.686;23.374;2023-02-11T04:12:42;47.07;;;28.23;;
22256;SDS011;11297;42.686;23.374;2023-02-11T04:15:07;42.97;;;24.07;;
22256;SDS011;11297;42.686;23.374;2023-02-11T04:17:33;51.23;;;30.67;;
22256;SDS011;11297;42.686;23.374;2023-02-11T04:19:59;54.10;;;31.87;;
22256;SDS011;11297;42.686;23.374;2023-02-11T04:22:24;48.10;;;29.07;;
22256;SDS011;11297;42.686;23.374;2023-02-11T04:24:49;47.10;;;30.83;;
22256;SDS011;11297;42.686;23.374;2023-02-11T04:27:15;59.27;;;33.27;;
22256;SDS011;11297;42.686;23.374;2023-02-11T04:29:40;54.97;;;30.07;;
22256;SDS011;11297;42.686;23.374;2023-02-11T04:32:06;45.70;;;26.93;;
22256;SDS011;11297;42.686;23.374;2023-02-11T04:34:31;48.80;;;30.43;;
22256;SDS011;11297;42.686;23.374;2023-02-11T04:36:56;50.60;;;29.57;;
22256;SDS011;11297;42.686;23.374;2023-02-11T04:39:22;46.63;;;27.93;;
22256;SDS011;11297;42.686;23.374;2023-02-11T04:41:47;39.10;;;24.30;;
22256;SDS011;11297;42.686;23.374;2023-02-11T04:44:13;43.13;;;26.17;;
22256;SDS011;11297;42.686;23.374;2023-02-11T04:46:38;46.50;;;29.77;;
22256;SDS011;11297;42.686;23.374;2023-02-11T04:49:04;43.80;;;28.70;;
22256;SDS011;11297;42.686;23.374;2023-02-11T04:51:29;51.30;;;33.13;;
22256;SDS011;11297;42.686;23.374;2023-02-11T04:53:55;56.80;;;33.80;;
22256;SDS011;11297;42.686;23.374;2023-02-11T04:56:21;55.93;;;34.53;;
22256;SDS011;11297;42.686;23.374;2023-02-11T04:58:46;46.83;;;29.30;;
22256;SDS011;11297;42.686;23.374;2023-02-11T05:01:13;49.23;;;29.77;;
22256;SDS011;11297;42.686;23.374;2023-02-11T05:03:40;46.20;;;27.47;;
22256;SDS011;11297;42.686;23.374;2023-02-11T05:06:06;41.00;;;26.37;;
22256;SDS011;11297;42.686;23.374;2023-02-11T05:08:31;39.63;;;25.33;;
22256;SDS011;11297;42.686;23.374;2023-02-11T05:10:57;38.10;;;23.47;;
22256;SDS011;11297;42.686;23.374;2023-02-11T05:13:23;33.40;;;20.80;;
22256;SDS011;11297;42.686;23.374;2023-02-11T05:15:49;31.00;;;19.73;;
22256;SDS011;11297;42.686;23.374;2023-02-11T05:18:14;30.13;;;19.43;;
22256;SDS011;11297;42.686;23.374;2023-02-11T05:20:40;36.63;;;22.30;;
22256;SDS011;11297;42.686;23.374;2023-02-11T05:23:06;99.80;;;57.20;;
22256;SDS011;11297;42.686;23.374;2023-02-11T05:25:32;53.43;;;32.40;;
22256;SDS011;11297;42.686;23.374;2023-02-11T05:27:57;23.70;;;16.40;;
22256;SDS011;11297;42.686;23.374;2023-02-11T05:30:23;25.90;;;14.37;;
22256;SDS011;11297;42.686;23.374;2023-02-11T05:32:48;21.40;;;13.87;;
22256;SDS011;11297;42.686;23.374;2023-02-11T05:35:13;42.03;;;24.17;;
22256;SDS011;11297;42.686;23.374;2023-02-11T05:37:39;29.93;;;17.93;;
22256;SDS011;11297;42.686;23.374;2023-02-11T05:40:04;40.57;;;23.60;;
22256;SDS011;11297;42.686;23.374;2023-02-11T05:42:30;21.50;;;15.23;;
22256;SDS011;11297;42.686;23.374;2023-02-11T05:44:55;20.47;;;13.10;;
22256;SDS011;11297;42.686;23.374;2023-02-11T05:47:21;24.53;;;15.13;;
22256;SDS011;11297;42.686;23.374;2023-02-11T05:49:47;26.97;;;17.53;;
22256;SDS011;11297;42.686;23.374;2023-02-11T05:52:12;25.00;;;15.67;;
22256;SDS011;11297;42.686;23.374;2023-02-11T05:54:37;37.23;;;20.03;;
22256;SDS011;11297;42.686;23.374;2023-02-11T05:57:03;40.63;;;23.73;;
22256;SDS011;11297;42.686;23.374;2023-02-11T05:59:28;29.50;;;18.63;;
22256;SDS011;11297;42.686;23.374;2023-02-11T06:01:53;48.17;;;29.00;;
22256;SDS011;11297;42.686;23.374;2023-02-11T06:04:19;37.90;;;22.27;;
22256;SDS011;11297;42.686;23.374;2023-02-11T06:06:44;55.13;;;31.50;;
22256;SDS011;11297;42.686;23.374;2023-02-11T06:09:10;30.90;;;17.33;;
22256;SDS011;11297;42.686;23.374;2023-02-11T06:11:36;48.80;;;29.30;;
22256;SDS011;11297;42.686;23.374;2023-02-11T06:14:01;59.53;;;32.33;;
22256;SDS011;11297;42.686;23.374;2023-02-11T06:16:27;54.10;;;29.93;;
22256;SDS011;11297;42.686;23.374;2023-02-11T06:18:52;37.47;;;21.90;;
22256;SDS011;11297;42.686;23.374;2023-02-11T06:21:18;40.13;;;24.73;;
22256;SDS011;11297;42.686;23.374;2023-02-11T06:23:43;39.03;;;23.80;;
22256;SDS011;11297;42.686;23.374;2023-02-11T06:26:14;34.17;;;20.87;;
22256;SDS011;11297;42.686;23.374;2023-02-11T06:28:41;35.60;;;24.10;;
22256;SDS011;11297;42.686;23.374;2023-02-11T06:31:07;44.87;;;27.97;;
22256;SDS011;11297;42.686;23.374;2023-02-11T06:33:33;47.77;;;31.40;;
22256;SDS011;11297;42.686;23.374;2023-02-11T06:35:59;55.67;;;34.23;;
22256;SDS011;11297;42.686;23.374;2023-02-11T06:38:26;48.40;;;31.10;;
22256;SDS011;11297;42.686;23.374;2023-02-11T06:40:51;54.70;;;34.73;;
22256;SDS011;11297;42.686;23.374;2023-02-11T06:43:17;40.03;;;26.60;;
22256;SDS011;11297;42.686;23.374;2023-02-11T06:45:42;37.17;;;22.53;;
22256;SDS011;11297;42.686;23.374;2023-02-11T06:48:08;34.33;;;22.07;;
22256;SDS011;11297;42.686;23.374;2023-02-11T06:50:33;28.97;;;19.70;;
22256;SDS011;11297;42.686;23.374;2023-02-11T06:52:59;31.63;;;20.10;;
22256;SDS011;11297;42.686;23.374;2023-02-11T06:55:25;28.73;;;19.77;;
22256;SDS011;11297;42.686;23.374;2023-02-11T06:57:50;30.27;;;20.13;;
22256;SDS011;11297;42.686;23.374;2023-02-11T07:00:16;33.67;;;19.43;;
22256;SDS011;11297;42.686;23.374;2023-02-11T07:02:42;29.20;;;19.73;;
22256;SDS011;11297;42.686;23.374;2023-02-11T07:05:08;33.40;;;22.50;;
22256;SDS011;11297;42.686;23.374;2023-02-11T07:07:34;37.50;;;22.47;;
22256;SDS011;11297;42.686;23.374;2023-02-11T07:10:00;32.60;;;22.10;;
22256;SDS011;11297;42.686;23.374;2023-02-11T07:12:28;28.57;;;20.70;;
22256;SDS011;11297;42.686;23.374;2023-02-11T07:14:54;29.87;;;20.13;;
22256;SDS011;11297;42.686;23.374;2023-02-11T07:17:20;29.87;;;18.03;;
22256;SDS011;11297;42.686;23.374;2023-02-11T07:19:46;35.87;;;21.93;;
22256;SDS011;11297;42.686;23.374;2023-02-11T07:22:11;30.50;;;19.87;;
22256;SDS011;11297;42.686;23.374;2023-02-11T07:24:37;27.60;;;20.20;;
22256;SDS011;11297;42.686;23.374;2023-02-11T07:27:02;27.53;;;18.80;;
22256;SDS011;11297;42.686;23.374;2023-02-11T07:29:28;29.73;;;19.67;;
22256;SDS011;11297;42.686;23.374;2023-02-11T07:31:53;28.10;;;18.77;;
22256;SDS011;11297;42.686;23.374;2023-02-11T07:34:19;28.00;;;18.93;;
22256;SDS011;11297;42.686;23.374;2023-02-11T07:36:44;28.53;;;19.07;;
22256;SDS011;11297;42.686;23.374;2023-02-11T07:39:10;28.43;;;19.73;;
22256;SDS011;11297;42.686;23.374;2023-02-11T07:41:35;29.90;;;19.43;;
22256;SDS011;11297;42.686;23.374;2023-02-11T07:44:01;28.43;;;19.53;;
22256;SDS011;11297;42.686;23.374;2023-02-11T07:46:27;28.63;;;20.00;;
22256;SDS011;11297;42.686;23.374;2023-02-11T07:48:53;30.10;;;18.60;;
22256;SDS011;11297;42.686;23.374;2023-02-11T07:51:29;26.97;;;19.43;;
22256;SDS011;11297;42.686;23.374;2023-02-11T07:53:56;29.87;;;19.03;;
22256;SDS011;11297;42.686;23.374;2023-02-11T07:56:22;27.03;;;18.50;;
22256;SDS011;11297;42.686;23.374;2023-02-11T07:58:48;28.47;;;19.70;;
22256;SDS011;11297;42.686;23.374;2023-02-11T08:01:15;29.73;;;20.80;;
22256;SDS011;11297;42.686;23.374;2023-02-11T08:03:49;28.73;;;20.03;;
22256;SDS011;11297;42.686;23.374;2023-02-11T08:06:16;31.93;;;21.93;;
22256;SDS011;11297;42.686;23.374;2023-02-11T08:08:44;29.17;;;20.93;;
22256;SDS011;11297;42.686;23.374;2023-02-11T08:11:13;26.77;;;19.50;;
22256;SDS011;11297;42.686;23.374;2023-02-11T08:13:41;27.97;;;20.53;;
22256;SDS011;11297;42.686;23.374;2023-02-11T08:16:06;27.47;;;19.70;;
22256;SDS011;11297;42.686;23.374;2023-02-11T08:18:33;30.27;;;23.30;;
22256;SDS011;11297;42.686;23.374;2023-02-11T08:21:04;27.20;;;20.40;;
22256;SDS011;11297;42.686;23.374;2023-02-11T08:23:31;32.00;;;21.83;;
22256;SDS011;11297;42.686;23.374;2023-02-11T08:26:00;29.43;;;21.47;;
22256;SDS011;11297;42.686;23.374;2023-02-11T08:28:27;32.20;;;21.20;;
22256;SDS011;11297;42.686;23.374;2023-02-11T08:30:52;31.17;;;21.83;;
22256;SDS011;11297;42.686;23.374;2023-02-11T08:33:18;30.53;;;21.73;;
22256;SDS011;11297;42.686;23.374;2023-02-11T08:35:43;31.93;;;22.33;;
22256;SDS011;11297;42.686;23.374;2023-02-11T08:38:08;27.80;;;19.57;;
22256;SDS011;11297;42.686;23.374;2023-02-11T08:40:34;28.70;;;20.17;;
22256;SDS011;11297;42.686;23.374;2023-02-11T08:42:59;29.33;;;20.70;;
22256;SDS011;11297;42.686;23.374;2023-02-11T08:45:24;29.13;;;20.13;;
22256;SDS011;11297;42.686;23.374;2023-02-11T08:47:50;26.07;;;20.67;;
22256;SDS011;11297;42.686;23.374;2023-02-11T08:50:15;25.27;;;18.70;;
22256;SDS011;11297;42.686;23.374;2023-02-11T08:52:41;28.13;;;18.50;;
22256;SDS011;11297;42.686;23.374;2023-02-11T08:55:07;25.70;;;19.73;;
22256;SDS011;11297;42.686;23.374;2023-02-11T08:57:32;27.97;;;19.37;;
22256;SDS011;11297;42.686;23.374;2023-02-11T08:59:57;25.80;;;20.37;;
22256;SDS011;11297;42.686;23.374;2023-02-11T09:02:23;26.83;;;20.77;;
22256;SDS011;11297;42.686;23.374;2023-02-11T09:04:48;25.73;;;19.17;;
22256;SDS011;11297;42.686;23.374;2023-02-11T09:07:14;32.87;;;20.87;;
22256;SDS011;11297;42.686;23.374;2023-02-11T09:09:39;28.70;;;20.47;;
22256;SDS011;11297;42.686;23.374;2023-02-11T09:12:04;27.47;;;18.63;;
22256;SDS011;11297;42.686;23.374;2023-02-11T09:14:30;26.63;;;19.83;;
22256;SDS011;11297;42.686;23.374;2023-02-11T09:16:55;26.20;;;17.57;;
22256;SDS011;11297;42.686;23.374;2023-02-11T09:19:21;23.17;;;18.40;;
22256;SDS011;11297;42.686;23.374;2023-02-11T09:21:47;27.20;;;19.70;;
22256;SDS011;11297;42.686;23.374;2023-02-11T09:24:12;28.07;;;20.10;;
22256;SDS011;11297;42.686;23.374;2023-02-11T09:26:39;27.98;;;21.98;;
22256;SDS011;11297;42.686;23.374;2023-02-11T09:29:05;26.37;;;19.80;;
22256;SDS011;11297;42.686;23.374;2023-02-11T09:31:31;25.83;;;18.90;;
22256;SDS011;11297;42.686;23.374;2023-02-11T09:33:58;29.23;;;19.30;;
22256;SDS011;11297;42.686;23.374;2023-02-11T09:36:26;27.73;;;19.47;;
22256;SDS011;11297;42.686;23.374;2023-02-11T09:38:54;26.30;;;19.23;;
22256;SDS011;11297;42.686;23.374;2023-02-11T09:43:46;25.57;;;19.03;;
22256;SDS011;11297;42.686;23.374;2023-02-11T09:46:13;30.23;;;20.67;;
22256;SDS011;11297;42.686;23.374;2023-02-11T09:48:41;24.00;;;17.03;;
22256;SDS011;11297;42.686;23.374;2023-02-11T09:51:18;26.40;;;18.30;;
22256;SDS011;11297;42.686;23.374;2023-02-11T09:53:48;24.70;;;17.20;;
22256;SDS011;11297;42.686;23.374;2023-02-11T09:56:20;22.20;;;16.23;;
22256;SDS011;11297;42.686;23.374;2023-02-11T09:58:46;21.13;;;15.13;;
22256;SDS011;11297;42.686;23.374;2023-02-11T10:01:17;22.20;;;15.90;;
22256;SDS011;11297;42.686;23.374;2023-02-11T10:04:00;23.27;;;17.23;;
22256;SDS011;11297;42.686;23.374;2023-02-11T10:06:49;27.83;;;16.83;;
22256;SDS011;11297;42.686;23.374;2023-02-11T10:22:30;18.80;;;11.63;;
22256;SDS011;11297;42.686;23.374;2023-02-11T10:24:58;22.30;;;15.67;;
22256;SDS011;11297;42.686;23.374;2023-02-11T10:27:32;20.00;;;16.23;;
22256;SDS011;11297;42.686;23.374;2023-02-11T10:30:08;19.40;;;15.20;;
22256;SDS011;11297;42.686;23.374;2023-02-11T10:32:49;18.57;;;14.70;;
22256;SDS011;11297;42.686;23.374;2023-02-11T10:35:21;19.97;;;15.40;;
22256;SDS011;11297;42.686;23.374;2023-02-11T10:37:47;21.00;;;14.37;;
22256;SDS011;11297;42.686;23.374;2023-02-11T10:40:14;18.83;;;14.03;;
22256;SDS011;11297;42.686;23.374;2023-02-11T10:42:45;19.17;;;13.23;;
22256;SDS011;11297;42.686;23.374;2023-02-11T10:45:20;21.60;;;14.33;;
22256;SDS011;11297;42.686;23.374;2023-02-11T10:48:34;19.47;;;14.10;;
22256;SDS011;11297;42.686;23.374;2023-02-11T10:51:17;18.90;;;13.77;;
22256;SDS011;11297;42.686;23.374;2023-02-11T10:53:43;19.60;;;13.57;;
22256;SDS011;11297;42.686;23.374;2023-02-11T10:56:11;18.40;;;13.20;;
22256;SDS011;11297;42.686;23.374;2023-02-11T10:58:45;18.40;;;12.53;;
22256;SDS011;11297;42.686;23.374;2023-02-11T11:01:19;19.67;;;13.50;;
22256;SDS011;11297;42.686;23.374;2023-02-11T11:03:46;22.60;;;14.47;;
22256;SDS011;11297;42.686;23.374;2023-02-11T11:06:14;18.77;;;13.40;;
22256;SDS011;11297;42.686;23.374;2023-02-11T11:08:47;15.57;;;12.43;;
22256;SDS011;11297;42.686;23.374;2023-02-11T11:11:15;19.37;;;12.47;;
22256;SDS011;11297;42.686;23.374;2023-02-11T11:16:22;17.00;;;12.73;;
22256;SDS011;11297;42.686;23.374;2023-02-11T11:18:49;16.93;;;13.67;;
22256;SDS011;11297;42.686;23.374;2023-02-11T11:21:45;20.03;;;14.20;;
22256;SDS011;11297;42.686;23.374;2023-02-11T11:26:44;18.60;;;12.67;;
22256;SDS011;11297;42.686;23.374;2023-02-11T11:29:15;17.47;;;14.00;;
22256;SDS011;11297;42.686;23.374;2023-02-11T11:31:58;19.30;;;12.87;;
22256;SDS011;11297;42.686;23.374;2023-02-11T11:34:26;15.20;;;11.97;;
22256;SDS011;11297;42.686;23.374;2023-02-11T11:36:55;18.63;;;12.07;;
22256;SDS011;11297;42.686;23.374;2023-02-11T11:39:26;21.40;;;14.47;;
22256;SDS011;11297;42.686;23.374;2023-02-11T11:41:56;18.67;;;12.83;;
22256;SDS011;11297;42.686;23.374;2023-02-11T11:47:16;16.37;;;11.70;;
22256;SDS011;11297;42.686;23.374;2023-02-11T11:55:47;12.97;;;9.87;;
22256;SDS011;11297;42.686;23.374;2023-02-11T11:58:17;15.93;;;10.83;;
22256;SDS011;11297;42.686;23.374;2023-02-11T12:00:51;16.90;;;11.47;;
22256;SDS011;11297;42.686;23.374;2023-02-11T12:25:28;13.10;;;9.23;;
22256;SDS011;11297;42.686;23.374;2023-02-11T12:30:48;13.57;;;10.57;;
22256;SDS011;11297;42.686;23.374;2023-02-11T12:38:31;15.23;;;9.30;;
22256;SDS011;11297;42.686;23.374;2023-02-11T12:41:25;15.40;;;9.43;;
22256;SDS011;11297;42.686;23.374;2023-02-11T12:44:25;12.83;;;8.53;;
22256;SDS011;11297;42.686;23.374;2023-02-11T12:47:15;11.50;;;8.27;;
22256;SDS011;11297;42.686;23.374;2023-02-11T12:52:47;12.97;;;9.27;;
22256;SDS011;11297;42.686;23.374;2023-02-11T12:55:23;12.50;;;8.40;;
22256;SDS011;11297;42.686;23.374;2023-02-11T12:57:52;10.50;;;7.63;;
22256;SDS011;11297;42.686;23.374;2023-02-11T13:00:22;16.07;;;8.77;;
22256;SDS011;11297;42.686;23.374;2023-02-11T13:02:55;12.93;;;8.17;;
22256;SDS011;11297;42.686;23.374;2023-02-11T13:05:27;15.17;;;9.10;;
22256;SDS011;11297;42.686;23.374;2023-02-11T13:08:03;10.87;;;8.57;;
22256;SDS011;11297;42.686;23.374;2023-02-11T13:10:35;14.77;;;9.07;;
22256;SDS011;11297;42.686;23.374;2023-02-11T13:13:04;12.73;;;9.23;;
22256;SDS011;11297;42.686;23.374;2023-02-11T13:15:41;18.17;;;10.30;;
22256;SDS011;11297;42.686;23.374;2023-02-11T13:26:04;12.00;;;8.73;;
22256;SDS011;11297;42.686;23.374;2023-02-11T13:28:48;12.43;;;8.73;;
22256;SDS011;11297;42.686;23.374;2023-02-11T13:31:20;15.20;;;9.70;;
22256;SDS011;11297;42.686;23.374;2023-02-11T13:33:45;14.63;;;9.17;;
22256;SDS011;11297;42.686;23.374;2023-02-11T13:36:18;12.20;;;8.70;;
22256;SDS011;11297;42.686;23.374;2023-02-11T13:38:53;15.47;;;10.07;;
22256;SDS011;11297;42.686;23.374;2023-02-11T13:41:28;15.00;;;8.87;;
22256;SDS011;11297;42.686;23.374;2023-02-11T13:44:01;13.77;;;9.30;;
22256;SDS011;11297;42.686;23.374;2023-02-11T13:49:29;13.60;;;9.20;;
22256;SDS011;11297;42.686;23.374;2023-02-11T13:52:17;12.17;;;9.07;;
22256;SDS011;11297;42.686;23.374;2023-02-11T13:54:48;12.33;;;8.83;;
22256;SDS011;11297;42.686;23.374;2023-02-11T13:59:44;14.10;;;8.40;;
22256;SDS011;11297;42.686;23.374;2023-02-11T14:02:22;13.17;;;8.80;;
22256;SDS011;11297;42.686;23.374;2023-02-11T14:10:53;8.63;;;6.37;;
22256;SDS011;11297;42.686;23.374;2023-02-11T14:31:58;14.40;;;8.77;;
22256;SDS011;11297;42.686;23.374;2023-02-11T14:42:21;11.37;;;8.37;;
22256;SDS011;11297;42.686;23.374;2023-02-11T14:44:51;12.50;;;9.20;;
22256;SDS011;11297;42.686;23.374;2023-02-11T14:47:23;12.90;;;8.87;;
22256;SDS011;11297;42.686;23.374;2023-02-11T14:49:54;13.23;;;9.30;;
22256;SDS011;11297;42.686;23.374;2023-02-11T14:54:52;13.43;;;9.10;;
22256;SDS011;11297;42.686;23.374;2023-02-11T14:57:29;12.40;;;8.97;;
22256;SDS011;11297;42.686;23.374;2023-02-11T14:59:56;13.63;;;9.30;;
22256;SDS011;11297;42.686;23.374;2023-02-11T15:02:24;14.30;;;9.47;;
22256;SDS011;11297;42.686;23.374;2023-02-11T15:04:53;12.70;;;9.10;;
22256;SDS011;11297;42.686;23.374;2023-02-11T15:07:19;12.07;;;9.20;;
22256;SDS011;11297;42.686;23.374;2023-02-11T15:09:47;12.90;;;9.17;;
22256;SDS011;11297;42.686;23.374;2023-02-11T15:12:21;11.83;;;9.13;;
22256;SDS011;11297;42.686;23.374;2023-02-11T15:14:53;14.43;;;9.03;;
22256;SDS011;11297;42.686;23.374;2023-02-11T15:17:23;14.93;;;9.93;;
22256;SDS011;11297;42.686;23.374;2023-02-11T15:19:52;13.13;;;7.73;;
22256;SDS011;11297;42.686;23.374;2023-02-11T15:27:23;15.40;;;10.70;;
22256;SDS011;11297;42.686;23.374;2023-02-11T15:29:50;13.37;;;9.60;;
22256;SDS011;11297;42.686;23.374;2023-02-11T15:34:46;15.77;;;10.47;;
22256;SDS011;11297;42.686;23.374;2023-02-11T15:37:23;21.00;;;10.30;;
22256;SDS011;11297;42.686;23.374;2023-02-11T15:39:50;16.87;;;10.47;;
22256;SDS011;11297;42.686;23.374;2023-02-11T15:42:18;16.47;;;10.10;;
22256;SDS011;11297;42.686;23.374;2023-02-11T15:45:06;15.37;;;11.10;;
22256;SDS011;11297;42.686;23.374;2023-02-11T15:47:37;16.83;;;12.00;;
22256;SDS011;11297;42.686;23.374;2023-02-11T15:50:04;20.30;;;12.53;;
22256;SDS011;11297;42.686;23.374;2023-02-11T15:52:30;19.37;;;12.30;;
22256;SDS011;11297;42.686;23.374;2023-02-11T15:54:57;23.23;;;13.07;;
22256;SDS011;11297;42.686;23.374;2023-02-11T15:57:26;20.80;;;12.47;;
22256;SDS011;11297;42.686;23.374;2023-02-11T15:59:52;20.63;;;11.90;;
22256;SDS011;11297;42.686;23.374;2023-02-11T16:02:30;23.33;;;13.53;;
22256;SDS011;11297;42.686;23.374;2023-02-11T16:10:02;24.20;;;13.00;;
22256;SDS011;11297;42.686;23.374;2023-02-11T16:12:27;21.33;;;13.37;;
22256;SDS011;11297;42.686;23.374;2023-02-11T16:14:54;20.50;;;13.60;;
22256;SDS011;11297;42.686;23.374;2023-02-11T16:17:24;24.33;;;14.47;;
22256;SDS011;11297;42.686;23.374;2023-02-11T16:19:52;24.17;;;14.63;;
22256;SDS011;11297;42.686;23.374;2023-02-11T16:22:19;25.23;;;15.10;;
22256;SDS011;11297;42.686;23.374;2023-02-11T16:24:49;24.07;;;14.93;;
22256;SDS011;11297;42.686;23.374;2023-02-11T16:27:20;26.27;;;15.37;;
22256;SDS011;11297;42.686;23.374;2023-02-11T16:29:48;18.47;;;12.90;;
22256;SDS011;11297;42.686;23.374;2023-02-11T16:32:21;21.27;;;14.47;;
22256;SDS011;11297;42.686;23.374;2023-02-11T16:34:50;25.87;;;16.60;;
22256;SDS011;11297;42.686;23.374;2023-02-11T16:37:16;25.17;;;16.20;;
22256;SDS011;11297;42.686;23.374;2023-02-11T16:39:41;24.80;;;16.37;;
22256;SDS011;11297;42.686;23.374;2023-02-11T16:42:08;26.27;;;16.73;;
22256;SDS011;11297;42.686;23.374;2023-02-11T16:44:34;25.83;;;17.20;;
22256;SDS011;11297;42.686;23.374;2023-02-11T16:47:00;29.70;;;17.87;;
22256;SDS011;11297;42.686;23.374;2023-02-11T16:49:30;27.77;;;18.63;;
22256;SDS011;11297;42.686;23.374;2023-02-11T16:52:00;26.63;;;17.50;;
22256;SDS011;11297;42.686;23.374;2023-02-11T16:54:27;23.67;;;16.20;;
22256;SDS011;11297;42.686;23.374;2023-02-11T16:56:53;23.90;;;16.53;;
22256;SDS011;11297;42.686;23.374;2023-02-11T16:59:19;22.73;;;15.80;;
22256;SDS011;11297;42.686;23.374;2023-02-11T17:01:45;29.93;;;16.23;;
22256;SDS011;11297;42.686;23.374;2023-02-11T17:04:25;25.63;;;17.33;;
22256;SDS011;11297;42.686;23.374;2023-02-11T17:06:52;26.60;;;16.97;;
22256;SDS011;11297;42.686;23.374;2023-02-11T17:09:18;27.57;;;16.57;;